sensor_id;sensor_type;location;lat;lon;timestamp;temperature;humidity
4637;DHT22;2331;48.806;9.140;2023-04-03T00:00:07;7.30;1.00
4637;DHT22;2331;48.806;9.140;2023-04-03T00:02:35;7.40;1.00
4637;DHT22;2331;48.806;9.140;2023-04-03T00:05:02;7.40;1.00
4637;DHT22;2331;48.806;9.140;2023-04-03T00:07:30;7.40;1.00
4637;DHT22;2331;48.806;9.140;2023-04-03T00:09:58;7.40;1.00
4637;DHT22;2331;48.806;9.140;2023-04-03T00:12:24;7.50;1.00
4637;DHT22;2331;48.806;9.140;2023-04-03T00:14:51;7.50;1.00
4637;DHT22;2331;48.806;9.140;2023-04-03T00:17:18;7.50;1.00
4637;DHT22;2331;48.806;9.140;2023-04-03T00:19:44;7.50;1.00
4637;DHT22;2331;48.806;9.140;2023-04-03T00:22:11;7.50;1.00
4637;DHT22;2331;48.806;9.140;2023-04-03T00:24:38;7.60;1.00
4637;DHT22;2331;48.806;9.140;2023-04-03T00:27:06;7.60;1.00
4637;DHT22;2331;48.806;9.140;2023-04-03T00:29:33;7.60;1.00
4637;DHT22;2331;48.806;9.140;2023-04-03T00:32:00;7.50;1.00
4637;DHT22;2331;48.806;9.140;2023-04-03T00:34:26;7.50;1.00
4637;DHT22;2331;48.806;9.140;2023-04-03T00:36:53;7.40;1.00
4637;DHT22;2331;48.806;9.140;2023-04-03T00:39:20;7.40;1.00
4637;DHT22;2331;48.806;9.140;2023-04-03T00:41:46;7.40;1.00
4637;DHT22;2331;48.806;9.140;2023-04-03T00:47:24;7.30;1.00
4637;DHT22;2331;48.806;9.140;2023-04-03T00:49:52;7.40;1.00
4637;DHT22;2331;48.806;9.140;2023-04-03T00:52:23;7.40;1.00
4637;DHT22;2331;48.806;9.140;2023-04-03T00:54:53;7.40;1.00
4637;DHT22;2331;48.806;9.140;2023-04-03T00:57:21;7.40;1.00
4637;DHT22;2331;48.806;9.140;2023-04-03T00:59:51;7.40;1.00
4637;DHT22;2331;48.806;9.140;2023-04-03T01:02:20;7.30;1.00
4637;DHT22;2331;48.806;9.140;2023-04-03T01:04:48;7.20;1.00
4637;DHT22;2331;48.806;9.140;2023-04-03T01:07:17;7.10;1.00
4637;DHT22;2331;48.806;9.140;2023-04-03T01:09:45;7.20;1.00
4637;DHT22;2331;48.806;9.140;2023-04-03T01:12:15;7.20;1.00
4637;DHT22;2331;48.806;9.140;2023-04-03T01:14:42;7.20;1.00
4637;DHT22;2331;48.806;9.140;2023-04-03T01:17:28;7.20;1.00
4637;DHT22;2331;48.806;9.140;2023-04-03T01:20:21;7.20;1.00
4637;DHT22;2331;48.806;9.140;2023-04-03T01:22:57;7.20;1.00
4637;DHT22;2331;48.806;9.140;2023-04-03T01:25:25;7.30;1.00
4637;DHT22;2331;48.806;9.140;2023-04-03T01:27:53;7.30;1.00
4637;DHT22;2331;48.806;9.140;2023-04-03T01:30:25;7.30;1.00
4637;DHT22;2331;48.806;9.140;2023-04-03T01:32:53;7.30;1.00
4637;DHT22;2331;48.806;9.140;2023-04-03T01:35:20;7.30;1.00
4637;DHT22;2331;48.806;9.140;2023-04-03T01:37:46;7.30;1.00
4637;DHT22;2331;48.806;9.140;2023-04-03T01:40:13;7.30;1.00
4637;DHT22;2331;48.806;9.140;2023-04-03T01:42:40;7.30;1.00
4637;DHT22;2331;48.806;9.140;2023-04-03T01:45:07;7.30;1.00
4637;DHT22;2331;48.806;9.140;2023-04-03T01:47:34;7.30;1.00
4637;DHT22;2331;48.806;9.140;2023-04-03T01:50:03;7.30;1.00
4637;DHT22;2331;48.806;9.140;2023-04-03T01:52:29;7.30;1.00
4637;DHT22;2331;48.806;9.140;2023-04-03T01:54:56;7.20;1.00
4637;DHT22;2331;48.806;9.140;2023-04-03T01:57:23;7.30;1.00
4637;DHT22;2331;48.806;9.140;2023-04-03T01:59:49;7.30;1.00
4637;DHT22;2331;48.806;9.140;2023-04-03T02:02:16;7.20;1.00
4637;DHT22;2331;48.806;9.140;2023-04-03T02:04:45;7.20;1.00
4637;DHT22;2331;48.806;9.140;2023-04-03T02:07:13;7.20;1.00
4637;DHT22;2331;48.806;9.140;2023-04-03T02:09:40;7.20;1.00
4637;DHT22;2331;48.806;9.140;2023-04-03T02:12:06;7.30;1.00
4637;DHT22;2331;48.806;9.140;2023-04-03T02:14:33;7.30;1.00
4637;DHT22;2331;48.806;9.140;2023-04-03T02:17:00;7.30;1.00
4637;DHT22;2331;48.806;9.140;2023-04-03T02:19:30;7.30;1.00
4637;DHT22;2331;48.806;9.140;2023-04-03T02:21:57;7.30;1.00
4637;DHT22;2331;48.806;9.140;2023-04-03T02:24:25;7.30;1.00
4637;DHT22;2331;48.806;9.140;2023-04-03T02:26:51;7.30;1.00
4637;DHT22;2331;48.806;9.140;2023-04-03T02:29:18;7.30;1.00
4637;DHT22;2331;48.806;9.140;2023-04-03T02:31:45;7.30;1.00
4637;DHT22;2331;48.806;9.140;2023-04-03T02:34:11;7.30;1.00
4637;DHT22;2331;48.806;9.140;2023-04-03T02:36:38;7.30;1.00
4637;DHT22;2331;48.806;9.140;2023-04-03T02:39:05;7.30;1.00
4637;DHT22;2331;48.806;9.140;2023-04-03T02:41:34;7.30;1.00
4637;DHT22;2331;48.806;9.140;2023-04-03T02:44:01;7.30;1.00
4637;DHT22;2331;48.806;9.140;2023-04-03T02:46:27;7.30;1.00
4637;DHT22;2331;48.806;9.140;2023-04-03T02:48:54;7.30;1.00
4637;DHT22;2331;48.806;9.140;2023-04-03T02:51:21;7.30;1.00
4637;DHT22;2331;48.806;9.140;2023-04-03T02:53:48;7.20;1.00
4637;DHT22;2331;48.806;9.140;2023-04-03T02:56:15;7.10;1.00
4637;DHT22;2331;48.806;9.140;2023-04-03T02:58:43;7.00;1.00
4637;DHT22;2331;48.806;9.140;2023-04-03T03:01:11;7.10;1.00
4637;DHT22;2331;48.806;9.140;2023-04-03T03:03:38;7.10;1.00
4637;DHT22;2331;48.806;9.140;2023-04-03T03:06:06;7.00;1.00
4637;DHT22;2331;48.806;9.140;2023-04-03T03:08:33;6.90;1.00
4637;DHT22;2331;48.806;9.140;2023-04-03T03:11:02;6.90;1.00
4637;DHT22;2331;48.806;9.140;2023-04-03T03:13:29;7.00;1.00
4637;DHT22;2331;48.806;9.140;2023-04-03T03:15:57;7.00;1.00
4637;DHT22;2331;48.806;9.140;2023-04-03T03:18:24;7.00;1.00
4637;DHT22;2331;48.806;9.140;2023-04-03T03:20:51;7.00;1.00
4637;DHT22;2331;48.806;9.140;2023-04-03T03:23:18;7.00;1.00
4637;DHT22;2331;48.806;9.140;2023-04-03T03:25:44;6.80;1.00
4637;DHT22;2331;48.806;9.140;2023-04-03T03:28:11;6.90;1.00
4637;DHT22;2331;48.806;9.140;2023-04-03T03:30:38;6.90;1.00
4637;DHT22;2331;48.806;9.140;2023-04-03T03:33:06;6.90;1.00
4637;DHT22;2331;48.806;9.140;2023-04-03T03:35:32;6.90;1.00
4637;DHT22;2331;48.806;9.140;2023-04-03T03:38:00;6.90;1.00
4637;DHT22;2331;48.806;9.140;2023-04-03T03:40:26;6.90;1.00
4637;DHT22;2331;48.806;9.140;2023-04-03T03:42:53;7.00;1.00
4637;DHT22;2331;48.806;9.140;2023-04-03T03:45:20;7.00;1.00
4637;DHT22;2331;48.806;9.140;2023-04-03T03:47:46;7.00;1.00
4637;DHT22;2331;48.806;9.140;2023-04-03T03:50:14;6.90;1.00
4637;DHT22;2331;48.806;9.140;2023-04-03T03:52:41;7.00;1.00
4637;DHT22;2331;48.806;9.140;2023-04-03T03:55:08;7.00;1.00
4637;DHT22;2331;48.806;9.140;2023-04-03T03:57:35;7.00;1.00
4637;DHT22;2331;48.806;9.140;2023-04-03T04:00:02;7.00;1.00
4637;DHT22;2331;48.806;9.140;2023-04-03T04:02:29;7.00;1.00
4637;DHT22;2331;48.806;9.140;2023-04-03T04:04:55;7.00;1.00
4637;DHT22;2331;48.806;9.140;2023-04-03T04:07:23;7.00;1.00
4637;DHT22;2331;48.806;9.140;2023-04-03T04:09:53;6.90;1.00
4637;DHT22;2331;48.806;9.140;2023-04-03T04:12:19;6.90;1.00
4637;DHT22;2331;48.806;9.140;2023-04-03T04:14:47;6.90;1.00
4637;DHT22;2331;48.806;9.140;2023-04-03T04:17:16;7.00;1.00
4637;DHT22;2331;48.806;9.140;2023-04-03T04:19:43;6.90;1.00
4637;DHT22;2331;48.806;9.140;2023-04-03T04:22:10;6.90;1.00
4637;DHT22;2331;48.806;9.140;2023-04-03T04:24:38;7.00;1.00
4637;DHT22;2331;48.806;9.140;2023-04-03T04:27:04;7.00;1.00
4637;DHT22;2331;48.806;9.140;2023-04-03T04:29:31;6.90;1.00
4637;DHT22;2331;48.806;9.140;2023-04-03T04:32:01;7.00;1.00
4637;DHT22;2331;48.806;9.140;2023-04-03T04:34:27;7.00;1.00
4637;DHT22;2331;48.806;9.140;2023-04-03T04:36:54;7.00;1.00
4637;DHT22;2331;48.806;9.140;2023-04-03T04:39:21;7.00;1.00
4637;DHT22;2331;48.806;9.140;2023-04-03T04:41:49;7.00;1.00
4637;DHT22;2331;48.806;9.140;2023-04-03T04:44:15;7.10;1.00
4637;DHT22;2331;48.806;9.140;2023-04-03T04:46:42;7.10;1.00
4637;DHT22;2331;48.806;9.140;2023-04-03T04:49:09;7.10;1.00
4637;DHT22;2331;48.806;9.140;2023-04-03T04:51:35;7.10;1.00
4637;DHT22;2331;48.806;9.140;2023-04-03T04:54:02;7.10;1.00
4637;DHT22;2331;48.806;9.140;2023-04-03T04:56:29;7.10;1.00
4637;DHT22;2331;48.806;9.140;2023-04-03T04:58:57;7.10;1.00
4637;DHT22;2331;48.806;9.140;2023-04-03T05:01:23;7.10;1.00
4637;DHT22;2331;48.806;9.140;2023-04-03T05:03:50;7.10;1.00
4637;DHT22;2331;48.806;9.140;2023-04-03T05:06:17;7.10;1.00
4637;DHT22;2331;48.806;9.140;2023-04-03T05:08:43;7.10;1.00
4637;DHT22;2331;48.806;9.140;2023-04-03T05:11:10;7.10;1.00
4637;DHT22;2331;48.806;9.140;2023-04-03T05:13:37;7.10;1.00
4637;DHT22;2331;48.806;9.140;2023-04-03T05:16:05;7.10;1.00
4637;DHT22;2331;48.806;9.140;2023-04-03T05:18:32;7.10;1.00
4637;DHT22;2331;48.806;9.140;2023-04-03T05:20:59;7.10;1.00
4637;DHT22;2331;48.806;9.140;2023-04-03T05:23:25;7.20;1.00
4637;DHT22;2331;48.806;9.140;2023-04-03T05:25:53;7.10;1.00
4637;DHT22;2331;48.806;9.140;2023-04-03T05:28:19;7.00;1.00
4637;DHT22;2331;48.806;9.140;2023-04-03T05:30:53;6.90;1.00
4637;DHT22;2331;48.806;9.140;2023-04-03T05:33:22;6.80;1.00
4637;DHT22;2331;48.806;9.140;2023-04-03T05:35:49;6.80;1.00
4637;DHT22;2331;48.806;9.140;2023-04-03T05:38:16;6.80;1.00
4637;DHT22;2331;48.806;9.140;2023-04-03T05:40:42;6.80;1.00
4637;DHT22;2331;48.806;9.140;2023-04-03T05:43:09;6.80;1.00
4637;DHT22;2331;48.806;9.140;2023-04-03T05:45:36;6.80;1.00
4637;DHT22;2331;48.806;9.140;2023-04-03T05:48:03;6.80;1.00
4637;DHT22;2331;48.806;9.140;2023-04-03T05:50:31;6.80;1.00
4637;DHT22;2331;48.806;9.140;2023-04-03T05:52:58;6.80;1.00
4637;DHT22;2331;48.806;9.140;2023-04-03T05:55:25;6.80;1.00
4637;DHT22;2331;48.806;9.140;2023-04-03T05:57:52;6.80;1.00
4637;DHT22;2331;48.806;9.140;2023-04-03T06:00:19;6.70;1.00
4637;DHT22;2331;48.806;9.140;2023-04-03T06:02:46;6.80;1.00
4637;DHT22;2331;48.806;9.140;2023-04-03T06:05:13;6.80;1.00
4637;DHT22;2331;48.806;9.140;2023-04-03T06:07:41;6.80;1.00
4637;DHT22;2331;48.806;9.140;2023-04-03T06:10:11;6.90;1.00
4637;DHT22;2331;48.806;9.140;2023-04-03T06:12:37;6.90;1.00
4637;DHT22;2331;48.806;9.140;2023-04-03T06:15:05;6.90;1.00
4637;DHT22;2331;48.806;9.140;2023-04-03T06:17:33;6.80;1.00
4637;DHT22;2331;48.806;9.140;2023-04-03T06:20:00;6.80;1.00
4637;DHT22;2331;48.806;9.140;2023-04-03T06:22:27;6.80;1.00
4637;DHT22;2331;48.806;9.140;2023-04-03T06:24:56;6.90;1.00
4637;DHT22;2331;48.806;9.140;2023-04-03T06:27:23;6.90;1.00
4637;DHT22;2331;48.806;9.140;2023-04-03T06:29:50;6.90;1.00
4637;DHT22;2331;48.806;9.140;2023-04-03T06:32:17;6.90;1.00
4637;DHT22;2331;48.806;9.140;2023-04-03T06:34:43;6.90;1.00
4637;DHT22;2331;48.806;9.140;2023-04-03T06:37:11;6.90;1.00
4637;DHT22;2331;48.806;9.140;2023-04-03T06:39:41;6.90;1.00
4637;DHT22;2331;48.806;9.140;2023-04-03T06:42:09;6.90;1.00
4637;DHT22;2331;48.806;9.140;2023-04-03T06:44:36;6.80;1.00
4637;DHT22;2331;48.806;9.140;2023-04-03T06:47:03;6.90;1.00
4637;DHT22;2331;48.806;9.140;2023-04-03T06:49:30;6.90;1.00
4637;DHT22;2331;48.806;9.140;2023-04-03T06:51:57;6.80;1.00
4637;DHT22;2331;48.806;9.140;2023-04-03T06:54:24;6.90;1.00
4637;DHT22;2331;48.806;9.140;2023-04-03T06:56:51;7.00;1.00
4637;DHT22;2331;48.806;9.140;2023-04-03T06:59:19;6.90;1.00
4637;DHT22;2331;48.806;9.140;2023-04-03T07:01:45;6.80;1.00
4637;DHT22;2331;48.806;9.140;2023-04-03T07:04:12;6.90;1.00
4637;DHT22;2331;48.806;9.140;2023-04-03T07:06:39;7.00;1.00
4637;DHT22;2331;48.806;9.140;2023-04-03T07:09:07;6.90;1.00
4637;DHT22;2331;48.806;9.140;2023-04-03T07:11:34;6.90;1.00
4637;DHT22;2331;48.806;9.140;2023-04-03T07:14:01;7.00;1.00
4637;DHT22;2331;48.806;9.140;2023-04-03T07:16:29;7.00;1.00
4637;DHT22;2331;48.806;9.140;2023-04-03T07:18:57;7.10;1.00
4637;DHT22;2331;48.806;9.140;2023-04-03T07:21:23;7.00;1.00
4637;DHT22;2331;48.806;9.140;2023-04-03T07:23:51;7.00;1.00
4637;DHT22;2331;48.806;9.140;2023-04-03T07:26:18;7.00;1.00
4637;DHT22;2331;48.806;9.140;2023-04-03T07:28:46;7.10;1.00
4637;DHT22;2331;48.806;9.140;2023-04-03T07:31:14;7.10;1.00
4637;DHT22;2331;48.806;9.140;2023-04-03T07:33:42;7.10;1.00
4637;DHT22;2331;48.806;9.140;2023-04-03T07:36:11;7.10;1.00
4637;DHT22;2331;48.806;9.140;2023-04-03T07:38:41;7.10;1.00
4637;DHT22;2331;48.806;9.140;2023-04-03T07:41:11;7.10;1.00
4637;DHT22;2331;48.806;9.140;2023-04-03T07:43:38;7.10;1.00
4637;DHT22;2331;48.806;9.140;2023-04-03T07:46:06;7.20;1.00
4637;DHT22;2331;48.806;9.140;2023-04-03T07:48:33;7.20;1.00
4637;DHT22;2331;48.806;9.140;2023-04-03T07:51:02;7.20;1.00
4637;DHT22;2331;48.806;9.140;2023-04-03T07:53:30;7.30;1.00
4637;DHT22;2331;48.806;9.140;2023-04-03T07:55:57;7.30;1.00
4637;DHT22;2331;48.806;9.140;2023-04-03T07:58:24;7.40;1.00
4637;DHT22;2331;48.806;9.140;2023-04-03T08:00:51;7.40;1.00
4637;DHT22;2331;48.806;9.140;2023-04-03T08:03:18;7.50;1.00
4637;DHT22;2331;48.806;9.140;2023-04-03T08:05:46;7.50;1.00
4637;DHT22;2331;48.806;9.140;2023-04-03T08:08:16;7.60;1.00
4637;DHT22;2331;48.806;9.140;2023-04-03T08:10:43;7.60;1.00
4637;DHT22;2331;48.806;9.140;2023-04-03T08:13:14;7.50;1.00
4637;DHT22;2331;48.806;9.140;2023-04-03T08:15:40;7.60;1.00
4637;DHT22;2331;48.806;9.140;2023-04-03T08:18:07;7.60;1.00
4637;DHT22;2331;48.806;9.140;2023-04-03T08:20:34;7.70;1.00
4637;DHT22;2331;48.806;9.140;2023-04-03T08:23:00;7.70;1.00
4637;DHT22;2331;48.806;9.140;2023-04-03T08:25:28;7.70;1.00
4637;DHT22;2331;48.806;9.140;2023-04-03T08:27:56;7.60;1.00
4637;DHT22;2331;48.806;9.140;2023-04-03T08:30:22;7.60;1.00
4637;DHT22;2331;48.806;9.140;2023-04-03T08:32:49;7.50;1.00
4637;DHT22;2331;48.806;9.140;2023-04-03T08:35:16;7.70;1.00
4637;DHT22;2331;48.806;9.140;2023-04-03T08:37:43;7.60;1.00
4637;DHT22;2331;48.806;9.140;2023-04-03T08:40:14;7.60;1.00
4637;DHT22;2331;48.806;9.140;2023-04-03T08:42:48;7.70;1.00
4637;DHT22;2331;48.806;9.140;2023-04-03T08:45:21;7.70;1.00
4637;DHT22;2331;48.806;9.140;2023-04-03T08:47:56;7.70;1.00
4637;DHT22;2331;48.806;9.140;2023-04-03T08:50:30;7.60;1.00
4637;DHT22;2331;48.806;9.140;2023-04-03T08:53:01;7.60;1.00
4637;DHT22;2331;48.806;9.140;2023-04-03T08:55:33;7.70;1.00
4637;DHT22;2331;48.806;9.140;2023-04-03T08:58:03;7.80;1.00
4637;DHT22;2331;48.806;9.140;2023-04-03T09:00:40;7.90;1.00
4637;DHT22;2331;48.806;9.140;2023-04-03T09:03:12;8.00;1.00
4637;DHT22;2331;48.806;9.140;2023-04-03T09:05:43;7.90;1.00
4637;DHT22;2331;48.806;9.140;2023-04-03T09:08:21;8.00;1.00
4637;DHT22;2331;48.806;9.140;2023-04-03T09:10:49;8.00;1.00
4637;DHT22;2331;48.806;9.140;2023-04-03T09:13:24;8.10;1.00
4637;DHT22;2331;48.806;9.140;2023-04-03T09:15:56;8.10;1.00
4637;DHT22;2331;48.806;9.140;2023-04-03T09:18:26;8.10;1.00
4637;DHT22;2331;48.806;9.140;2023-04-03T09:21:02;8.20;1.00
4637;DHT22;2331;48.806;9.140;2023-04-03T09:23:41;8.20;1.00
4637;DHT22;2331;48.806;9.140;2023-04-03T09:26:14;8.30;1.00
4637;DHT22;2331;48.806;9.140;2023-04-03T09:28:44;8.30;1.00
4637;DHT22;2331;48.806;9.140;2023-04-03T09:31:19;8.20;1.00
4637;DHT22;2331;48.806;9.140;2023-04-03T09:33:47;8.20;1.00
4637;DHT22;2331;48.806;9.140;2023-04-03T09:36:14;8.20;1.00
4637;DHT22;2331;48.806;9.140;2023-04-03T09:39:03;8.20;1.00
4637;DHT22;2331;48.806;9.140;2023-04-03T09:41:31;8.10;1.00
4637;DHT22;2331;48.806;9.140;2023-04-03T09:44:00;8.20;1.00
4637;DHT22;2331;48.806;9.140;2023-04-03T09:46:30;8.30;1.00
4637;DHT22;2331;48.806;9.140;2023-04-03T09:48:58;8.20;1.00
4637;DHT22;2331;48.806;9.140;2023-04-03T09:51:27;8.20;1.00
4637;DHT22;2331;48.806;9.140;2023-04-03T09:53:55;8.30;1.00
4637;DHT22;2331;48.806;9.140;2023-04-03T09:56:25;8.30;1.00
4637;DHT22;2331;48.806;9.140;2023-04-03T09:59:13;8.40;1.00
4637;DHT22;2331;48.806;9.140;2023-04-03T10:01:43;8.40;1.00
4637;DHT22;2331;48.806;9.140;2023-04-03T10:04:12;8.50;1.00
4637;DHT22;2331;48.806;9.140;2023-04-03T10:06:40;8.40;1.00
4637;DHT22;2331;48.806;9.140;2023-04-03T10:09:19;8.50;1.00
4637;DHT22;2331;48.806;9.140;2023-04-03T10:12:08;8.50;1.00
4637;DHT22;2331;48.806;9.140;2023-04-03T10:14:40;8.70;1.00
4637;DHT22;2331;48.806;9.140;2023-04-03T10:17:16;8.70;1.00
4637;DHT22;2331;48.806;9.140;2023-04-03T10:19:48;8.60;1.00
4637;DHT22;2331;48.806;9.140;2023-04-03T10:22:19;8.70;1.00
4637;DHT22;2331;48.806;9.140;2023-04-03T10:24:57;8.60;1.00
4637;DHT22;2331;48.806;9.140;2023-04-03T10:27:35;8.60;1.00
4637;DHT22;2331;48.806;9.140;2023-04-03T10:30:19;8.50;1.00
4637;DHT22;2331;48.806;9.140;2023-04-03T10:32:57;8.60;1.00
4637;DHT22;2331;48.806;9.140;2023-04-03T10:35:35;8.70;1.00
4637;DHT22;2331;48.806;9.140;2023-04-03T10:38:11;8.70;1.00
4637;DHT22;2331;48.806;9.140;2023-04-03T10:40:47;8.70;1.00
4637;DHT22;2331;48.806;9.140;2023-04-03T10:43:21;8.60;1.00
4637;DHT22;2331;48.806;9.140;2023-04-03T10:45:58;8.60;1.00
4637;DHT22;2331;48.806;9.140;2023-04-03T10:48:35;8.60;1.00
4637;DHT22;2331;48.806;9.140;2023-04-03T10:51:15;8.60;1.00
4637;DHT22;2331;48.806;9.140;2023-04-03T10:53:47;8.60;1.00
4637;DHT22;2331;48.806;9.140;2023-04-03T10:56:20;8.60;1.00
4637;DHT22;2331;48.806;9.140;2023-04-03T10:58:56;8.70;1.00
4637;DHT22;2331;48.806;9.140;2023-04-03T11:01:29;8.70;1.00
4637;DHT22;2331;48.806;9.140;2023-04-03T11:03:59;8.80;1.00
4637;DHT22;2331;48.806;9.140;2023-04-03T11:06:32;8.80;1.00
4637;DHT22;2331;48.806;9.140;2023-04-03T11:09:05;8.80;1.00
4637;DHT22;2331;48.806;9.140;2023-04-03T11:11:36;8.60;1.00
4637;DHT22;2331;48.806;9.140;2023-04-03T11:14:10;8.60;1.00
4637;DHT22;2331;48.806;9.140;2023-04-03T11:16:46;8.70;1.00
4637;DHT22;2331;48.806;9.140;2023-04-03T11:19:18;8.70;1.00
4637;DHT22;2331;48.806;9.140;2023-04-03T11:21:54;8.80;1.00
4637;DHT22;2331;48.806;9.140;2023-04-03T11:24:25;8.70;1.00
4637;DHT22;2331;48.806;9.140;2023-04-03T11:26:54;8.80;1.00
4637;DHT22;2331;48.806;9.140;2023-04-03T11:29:24;8.60;1.00
4637;DHT22;2331;48.806;9.140;2023-04-03T11:32:16;8.60;1.00
4637;DHT22;2331;48.806;9.140;2023-04-03T11:34:48;8.70;1.00
4637;DHT22;2331;48.806;9.140;2023-04-03T11:37:20;8.80;1.00
4637;DHT22;2331;48.806;9.140;2023-04-03T11:39:53;8.80;1.00
4637;DHT22;2331;48.806;9.140;2023-04-03T11:42:33;8.80;1.00
4637;DHT22;2331;48.806;9.140;2023-04-03T11:45:22;8.90;1.00
4637;DHT22;2331;48.806;9.140;2023-04-03T11:47:52;8.90;1.00
4637;DHT22;2331;48.806;9.140;2023-04-03T11:50:47;8.80;1.00
4637;DHT22;2331;48.806;9.140;2023-04-03T11:53:34;8.80;1.00
4637;DHT22;2331;48.806;9.140;2023-04-03T11:59:22;8.90;1.00
4637;DHT22;2331;48.806;9.140;2023-04-03T12:01:51;9.00;1.00
4637;DHT22;2331;48.806;9.140;2023-04-03T12:04:21;9.10;1.00
4637;DHT22;2331;48.806;9.140;2023-04-03T12:07:11;9.00;1.00
4637;DHT22;2331;48.806;9.140;2023-04-03T12:12:58;8.90;1.00
4637;DHT22;2331;48.806;9.140;2023-04-03T12:15:54;9.00;1.00
4637;DHT22;2331;48.806;9.140;2023-04-03T12:18:59;9.00;1.00
4637;DHT22;2331;48.806;9.140;2023-04-03T12:22:09;8.90;1.00
4637;DHT22;2331;48.806;9.140;2023-04-03T12:24:38;9.00;1.00
4637;DHT22;2331;48.806;9.140;2023-04-03T12:27:21;9.10;1.00
4637;DHT22;2331;48.806;9.140;2023-04-03T12:29:54;9.10;1.00
4637;DHT22;2331;48.806;9.140;2023-04-03T12:35:19;9.30;1.00
4637;DHT22;2331;48.806;9.140;2023-04-03T12:40:51;9.40;1.00
4637;DHT22;2331;48.806;9.140;2023-04-03T12:43:35;9.40;1.00
4637;DHT22;2331;48.806;9.140;2023-04-03T12:46:12;9.30;1.00
4637;DHT22;2331;48.806;9.140;2023-04-03T12:48:47;9.40;1.00
4637;DHT22;2331;48.806;9.140;2023-04-03T12:51:18;9.40;1.00
4637;DHT22;2331;48.806;9.140;2023-04-03T12:53:48;9.30;1.00
4637;DHT22;2331;48.806;9.140;2023-04-03T12:56:21;9.40;1.00
4637;DHT22;2331;48.806;9.140;2023-04-03T12:58:49;9.20;1.00
4637;DHT22;2331;48.806;9.140;2023-04-03T13:01:18;9.30;1.00
4637;DHT22;2331;48.806;9.140;2023-04-03T13:03:49;9.10;1.00
4637;DHT22;2331;48.806;9.140;2023-04-03T13:06:18;9.10;1.00
4637;DHT22;2331;48.806;9.140;2023-04-03T13:08:51;9.20;1.00
4637;DHT22;2331;48.806;9.140;2023-04-03T13:11:20;9.20;1.00
4637;DHT22;2331;48.806;9.140;2023-04-03T13:13:56;9.40;1.00
4637;DHT22;2331;48.806;9.140;2023-04-03T13:16:22;9.40;1.00
4637;DHT22;2331;48.806;9.140;2023-04-03T13:18:51;9.60;1.00
4637;DHT22;2331;48.806;9.140;2023-04-03T13:21:20;9.60;1.00
4637;DHT22;2331;48.806;9.140;2023-04-03T13:23:52;9.60;1.00
4637;DHT22;2331;48.806;9.140;2023-04-03T13:26:22;9.60;1.00
4637;DHT22;2331;48.806;9.140;2023-04-03T13:28:49;9.70;1.00
4637;DHT22;2331;48.806;9.140;2023-04-03T13:31:20;9.60;1.00
4637;DHT22;2331;48.806;9.140;2023-04-03T13:33:56;9.60;1.00
4637;DHT22;2331;48.806;9.140;2023-04-03T13:36:25;9.60;1.00
4637;DHT22;2331;48.806;9.140;2023-04-03T13:39:04;9.70;1.00
4637;DHT22;2331;48.806;9.140;2023-04-03T13:41:34;9.60;1.00
4637;DHT22;2331;48.806;9.140;2023-04-03T13:44:25;9.60;1.00
4637;DHT22;2331;48.806;9.140;2023-04-03T13:46:54;9.60;1.00
4637;DHT22;2331;48.806;9.140;2023-04-03T13:49:26;9.60;1.00
4637;DHT22;2331;48.806;9.140;2023-04-03T13:51:54;9.70;1.00
4637;DHT22;2331;48.806;9.140;2023-04-03T13:54:24;9.70;1.00
4637;DHT22;2331;48.806;9.140;2023-04-03T13:56:54;9.80;1.00
4637;DHT22;2331;48.806;9.140;2023-04-03T13:59:25;9.90;1.00
4637;DHT22;2331;48.806;9.140;2023-04-03T14:01:55;10.00;1.00
4637;DHT22;2331;48.806;9.140;2023-04-03T14:04:24;10.00;1.00
4637;DHT22;2331;48.806;9.140;2023-04-03T14:06:51;10.10;1.00
4637;DHT22;2331;48.806;9.140;2023-04-03T14:09:19;10.00;1.00
4637;DHT22;2331;48.806;9.140;2023-04-03T14:11:49;9.80;1.00
4637;DHT22;2331;48.806;9.140;2023-04-03T14:14:19;10.00;1.00
4637;DHT22;2331;48.806;9.140;2023-04-03T14:16:50;10.00;1.00
4637;DHT22;2331;48.806;9.140;2023-04-03T14:19:21;10.00;1.00
4637;DHT22;2331;48.806;9.140;2023-04-03T14:21:49;10.10;1.00
4637;DHT22;2331;48.806;9.140;2023-04-03T14:24:16;9.80;1.00
4637;DHT22;2331;48.806;9.140;2023-04-03T14:26:45;10.00;1.00
4637;DHT22;2331;48.806;9.140;2023-04-03T14:29:14;10.00;1.00
4637;DHT22;2331;48.806;9.140;2023-04-03T14:31:41;9.90;1.00
4637;DHT22;2331;48.806;9.140;2023-04-03T14:34:09;9.90;1.00
4637;DHT22;2331;48.806;9.140;2023-04-03T14:36:37;10.00;1.00
4637;DHT22;2331;48.806;9.140;2023-04-03T14:39:08;10.10;1.00
4637;DHT22;2331;48.806;9.140;2023-04-03T14:41:35;10.10;1.00
4637;DHT22;2331;48.806;9.140;2023-04-03T14:44:02;10.10;1.00
4637;DHT22;2331;48.806;9.140;2023-04-03T14:46:32;10.10;1.00
4637;DHT22;2331;48.806;9.140;2023-04-03T14:49:00;10.20;1.00
4637;DHT22;2331;48.806;9.140;2023-04-03T14:51:27;10.10;1.00
4637;DHT22;2331;48.806;9.140;2023-04-03T14:53:54;10.20;1.00
4637;DHT22;2331;48.806;9.140;2023-04-03T14:56:23;10.30;1.00
4637;DHT22;2331;48.806;9.140;2023-04-03T14:58:55;10.30;1.00
4637;DHT22;2331;48.806;9.140;2023-04-03T15:01:22;10.30;1.00
4637;DHT22;2331;48.806;9.140;2023-04-03T15:03:50;10.40;1.00
4637;DHT22;2331;48.806;9.140;2023-04-03T15:06:17;10.40;1.00
4637;DHT22;2331;48.806;9.140;2023-04-03T15:08:45;10.30;1.00
4637;DHT22;2331;48.806;9.140;2023-04-03T15:11:13;10.40;1.00
4637;DHT22;2331;48.806;9.140;2023-04-03T15:13:41;10.40;1.00
4637;DHT22;2331;48.806;9.140;2023-04-03T15:16:14;10.40;1.00
4637;DHT22;2331;48.806;9.140;2023-04-03T15:18:41;10.40;1.00
4637;DHT22;2331;48.806;9.140;2023-04-03T15:21:10;10.40;1.00
4637;DHT22;2331;48.806;9.140;2023-04-03T15:23:37;10.40;1.00
4637;DHT22;2331;48.806;9.140;2023-04-03T15:26:03;10.40;1.00
4637;DHT22;2331;48.806;9.140;2023-04-03T15:28:34;10.40;1.00
4637;DHT22;2331;48.806;9.140;2023-04-03T15:31:02;10.40;1.00
4637;DHT22;2331;48.806;9.140;2023-04-03T15:33:29;10.40;1.00
4637;DHT22;2331;48.806;9.140;2023-04-03T15:35:56;10.40;1.00
4637;DHT22;2331;48.806;9.140;2023-04-03T15:38:24;10.40;1.00
4637;DHT22;2331;48.806;9.140;2023-04-03T15:40:50;10.20;1.00
4637;DHT22;2331;48.806;9.140;2023-04-03T15:43:17;10.30;1.00
4637;DHT22;2331;48.806;9.140;2023-04-03T15:45:45;10.20;1.00
4637;DHT22;2331;48.806;9.140;2023-04-03T15:48:12;10.30;1.00
4637;DHT22;2331;48.806;9.140;2023-04-03T15:50:39;10.30;1.00
4637;DHT22;2331;48.806;9.140;2023-04-03T15:53:06;10.30;1.00
4637;DHT22;2331;48.806;9.140;2023-04-03T15:55:36;10.30;1.00
4637;DHT22;2331;48.806;9.140;2023-04-03T15:58:03;10.30;1.00
4637;DHT22;2331;48.806;9.140;2023-04-03T16:00:31;10.20;1.00
4637;DHT22;2331;48.806;9.140;2023-04-03T16:03:02;10.30;1.00
4637;DHT22;2331;48.806;9.140;2023-04-03T16:05:31;10.30;1.00
4637;DHT22;2331;48.806;9.140;2023-04-03T16:07:59;10.40;1.00
4637;DHT22;2331;48.806;9.140;2023-04-03T16:10:26;10.40;1.00
4637;DHT22;2331;48.806;9.140;2023-04-03T16:12:54;10.40;1.00
4637;DHT22;2331;48.806;9.140;2023-04-03T16:15:22;10.40;1.00
4637;DHT22;2331;48.806;9.140;2023-04-03T16:17:49;10.50;1.00
4637;DHT22;2331;48.806;9.140;2023-04-03T16:20:17;10.60;1.00
4637;DHT22;2331;48.806;9.140;2023-04-03T16:22:45;10.60;1.00
4637;DHT22;2331;48.806;9.140;2023-04-03T16:25:12;10.70;1.00
4637;DHT22;2331;48.806;9.140;2023-04-03T16:27:39;10.60;1.00
4637;DHT22;2331;48.806;9.140;2023-04-03T16:30:08;10.40;1.00
4637;DHT22;2331;48.806;9.140;2023-04-03T16:32:36;10.40;1.00
4637;DHT22;2331;48.806;9.140;2023-04-03T16:35:05;10.30;1.00
4637;DHT22;2331;48.806;9.140;2023-04-03T16:37:32;10.20;1.00
4637;DHT22;2331;48.806;9.140;2023-04-03T16:39:58;10.20;1.00
4637;DHT22;2331;48.806;9.140;2023-04-03T16:42:25;10.20;1.00
4637;DHT22;2331;48.806;9.140;2023-04-03T16:44:52;10.30;1.00
4637;DHT22;2331;48.806;9.140;2023-04-03T16:47:20;10.20;1.00
4637;DHT22;2331;48.806;9.140;2023-04-03T16:49:46;10.30;1.00
4637;DHT22;2331;48.806;9.140;2023-04-03T16:52:13;10.20;1.00
4637;DHT22;2331;48.806;9.140;2023-04-03T16:54:40;10.30;1.00
4637;DHT22;2331;48.806;9.140;2023-04-03T16:57:07;10.40;1.00
4637;DHT22;2331;48.806;9.140;2023-04-03T16:59:33;10.30;1.00
4637;DHT22;2331;48.806;9.140;2023-04-03T17:02:00;10.30;1.00